Adams Mills, OH

7:20 PM EST on January 25, 2015 (GMT -0500)
Falls Twp | Change Station
CLOSE
Current Station
Personal Weather Station
Location: North Zanesville, OH
Elevation: 800 ft
Nearby Weather Stations
Active Advisory: Winter Weather Advisory Active Notice: Local Storm Report

Elev 800 ft 39.98 °N, 82.02 °W | Updated 11 seconds ago

Ice Pellets
Ice Pellets
33.0 °F
Feels Like 33 °F
N
1.0
Wind Variable Wind from NNE
Gusts 1.0 mph

Today
High -- | Low -- °F
--% Chance of Precip.
Yesterday
High -- | Low -- °F
Precip. -- in
7:42 AM 5:38 PM
Waxing Crescent, 37% visible
Pressure 29.78 in
Visibility 1.0 miles
Clouds Overcast 400 ft
Windchill 33 °F
Dew Point 32 °F
Humidity 98%
Rainfall 0.14 in
Snow Depth Not available.
UV 0 out of 12
Pollen .10 out of 12
Air Quality Not available.
Flu Activity Not available.
METAR KZZV 252353Z AUTO 04004KT 1SM -SN BR OVC004 00/M01 A2976 RMK AO2 SLP084 P0001 60015 T00001006 10022 20000 51007

More Conditions Fewer Conditions

Pressure 29.78 in
Visibility 1.0 miles
Clouds Overcast 400 ft
Windchill 33 °F
Dew Point 32 °F
Humidity 98%
Rainfall 0.14 in
Snow Depth Not available.
UV 0 out of 12
Pollen .10 out of 12
Air Quality Not available.
Flu Activity Not available.
METAR KZZV 252353Z AUTO 04004KT 1SM -SN BR OVC004 00/M01 A2976 RMK AO2 SLP084 P0001 60015 T00001006 10022 20000 51007

More Conditions Fewer Conditions

10-Day Weather Forecast

Almanac

Astronomy

Jan. 25, 2015 Rise Set
Actual Time
Civil Twilight
Nautical Twilight
Astronomical Twilight
Moon
Length of Visible Light
Length of Day
Tomorrow will be .
, % of the Moon is Illuminated

Today's Extremes

State Highs State Lows

Community

WunderPhotos

Upload Photos

1,790,013 photos uploaded!

WunderBlogs® & News

Nearby

Air Quality

  Air Quality AQ Index Pollutant
Not available.

Snow Depth

Station Depth Elevation

Earthquake Activity

City Distance Mag. Time & Date
Minimum magnitude displayed is 2.5.

Coastal Water Temperatures

Place Temperature

Nearby Weather Stations